createdAt,value
2018-07-02T00:01:43.616Z,20.00
2018-07-02T00:04:10.605Z,20.40
2018-07-02T00:09:22.341Z,20.70
2018-07-02T00:11:49.381Z,20.30
2018-07-02T00:14:16.366Z,20.40
2018-07-02T00:16:43.354Z,20.60
2018-07-02T00:19:10.374Z,21.00
2018-07-02T00:21:37.367Z,21.10
2018-07-02T00:24:05.274Z,21.00
2018-07-02T00:26:32.315Z,21.30
2018-07-02T00:28:59.318Z,22.20
2018-07-02T00:31:26.320Z,21.50
2018-07-02T00:33:53.347Z,22.10
2018-07-02T00:36:20.929Z,21.80
2018-07-02T00:38:47.924Z,22.00
2018-07-02T00:43:42.060Z,22.50
2018-07-02T00:46:09.073Z,22.70
2018-07-02T00:51:03.983Z,23.20
2018-07-02T00:55:58.109Z,23.60
2018-07-02T00:58:25.107Z,24.30
2018-07-02T01:00:52.097Z,24.20
2018-07-02T01:03:19.121Z,24.60
2018-07-02T01:05:46.121Z,24.00
2018-07-02T01:08:13.112Z,24.20
2018-07-02T01:10:40.144Z,24.30
2018-07-02T01:13:07.134Z,23.80
2018-07-02T01:15:34.149Z,24.40
2018-07-02T01:18:01.183Z,24.50
2018-07-02T01:20:28.719Z,25.00
2018-07-02T01:25:35.087Z,25.80
2018-07-02T01:28:02.075Z,26.20
2018-07-02T01:30:29.102Z,27.10
2018-07-02T01:35:23.241Z,28.20
2018-07-02T01:37:50.249Z,28.80
2018-07-02T01:45:11.462Z,28.80
2018-07-02T01:47:38.492Z,28.80
2018-07-02T01:50:05.493Z,28.30
2018-07-02T01:52:32.492Z,28.70
2018-07-02T01:54:59.543Z,28.20
2018-07-02T01:57:26.538Z,29.40
2018-07-02T01:59:53.567Z,29.20
2018-07-02T02:02:20.609Z,29.60
2018-07-02T02:04:47.613Z,30.00
2018-07-02T02:07:14.605Z,30.00
2018-07-02T02:09:41.652Z,30.40
2018-07-02T02:12:08.676Z,30.50
2018-07-02T02:14:35.665Z,30.60
2018-07-02T02:17:02.700Z,30.90
2018-07-02T02:19:29.704Z,31.70
2018-07-02T02:21:56.696Z,31.60
2018-07-02T02:24:23.723Z,31.90
2018-07-02T02:26:50.720Z,33.00
2018-07-02T02:29:17.734Z,33.20
2018-07-02T02:31:44.765Z,33.30
2018-07-02T02:34:11.756Z,33.70
2018-07-02T02:36:38.748Z,35.20
2018-07-02T02:39:05.780Z,36.50
2018-07-02T02:44:11.274Z,44.80
2018-07-02T02:46:38.273Z,50.20
2018-07-02T02:49:06.147Z,51.50
2018-07-02T02:54:02.932Z,49.60
2018-07-02T02:56:29.938Z,48.00
2018-07-02T02:58:56.971Z,46.20
2018-07-02T03:01:23.985Z,47.70
2018-07-02T03:03:52.238Z,47.40
2018-07-02T03:06:20.000Z,48.80
2018-07-02T03:08:46.992Z,48.40
2018-07-02T03:11:13.972Z,49.20
2018-07-02T03:13:41.003Z,48.20
2018-07-02T03:18:35.084Z,47.50
2018-07-02T03:21:02.111Z,49.20
2018-07-02T03:23:29.098Z,49.60
2018-07-02T03:25:56.089Z,49.60
2018-07-02T03:28:23.130Z,50.40
2018-07-02T03:30:50.146Z,51.80
2018-07-02T03:33:17.140Z,52.50
2018-07-02T03:35:44.620Z,52.60
2018-07-02T03:38:12.455Z,53.50
2018-07-02T03:40:39.443Z,54.50
2018-07-02T03:43:06.486Z,54.00
2018-07-02T03:48:00.572Z,55.60
2018-07-02T03:50:27.598Z,55.40
2018-07-02T03:52:54.592Z,56.60
2018-07-02T03:58:00.098Z,56.90
2018-07-02T04:00:27.920Z,57.10
2018-07-02T04:05:35.079Z,57.00
2018-07-02T04:08:02.055Z,55.90
2018-07-02T04:10:29.055Z,55.40
2018-07-02T04:12:56.126Z,54.70
2018-07-02T04:15:24.035Z,54.60
2018-07-02T04:17:51.028Z,53.20
2018-07-02T04:20:18.063Z,53.90
2018-07-02T04:22:46.630Z,56.50
2018-07-02T04:27:40.820Z,55.70
2018-07-02T04:30:08.059Z,57.70
2018-07-02T04:35:13.798Z,56.40
2018-07-02T04:37:40.791Z,55.10
2018-07-02T04:40:08.676Z,57.30
2018-07-02T04:42:35.654Z,53.30
2018-07-02T04:47:41.679Z,52.70
2018-07-02T04:50:08.677Z,53.70
2018-07-02T04:52:35.781Z,52.00
2018-07-02T04:55:03.672Z,52.10
2018-07-02T04:57:30.680Z,49.30
2018-07-02T04:59:57.665Z,49.20
2018-07-02T05:02:24.713Z,47.40
2018-07-02T05:07:32.558Z,47.10
2018-07-02T05:09:59.523Z,48.20
2018-07-02T05:12:26.513Z,42.90
2018-07-02T05:14:53.536Z,42.10
2018-07-02T05:17:20.525Z,42.30
2018-07-02T05:19:47.512Z,38.30
2018-07-02T05:22:14.566Z,38.00
2018-07-02T05:24:41.552Z,38.50
2018-07-02T05:27:08.543Z,35.60
2018-07-02T05:29:35.560Z,36.70
2018-07-02T05:32:02.555Z,34.70
2018-07-02T05:34:29.540Z,35.00
2018-07-02T05:36:56.564Z,36.90
2018-07-02T05:39:23.554Z,35.30
2018-07-02T05:41:50.548Z,35.40
2018-07-02T05:44:17.575Z,33.90
2018-07-02T05:49:11.885Z,36.00
2018-07-02T05:56:33.138Z,30.70
2018-07-02T05:59:00.157Z,27.70
2018-07-02T06:01:27.153Z,26.00
2018-07-02T06:03:54.150Z,25.20
2018-07-02T06:06:21.193Z,25.00
2018-07-02T06:08:48.179Z,23.00
2018-07-02T06:11:15.165Z,25.30
2018-07-02T06:13:42.218Z,22.70
2018-07-02T06:16:09.205Z,22.50
2018-07-02T06:18:36.198Z,21.60
2018-07-02T06:21:03.213Z,21.00
2018-07-02T06:23:31.158Z,19.90
2018-07-02T06:25:58.173Z,18.40
2018-07-02T06:28:25.226Z,19.70
2018-07-02T06:33:31.635Z,19.00
2018-07-02T06:35:58.622Z,18.70
2018-07-02T06:38:25.624Z,18.20
2018-07-02T06:40:52.652Z,17.70
2018-07-02T06:43:19.641Z,17.20
2018-07-02T06:45:46.642Z,17.90
2018-07-02T06:48:13.687Z,17.80
2018-07-02T06:50:40.706Z,20.00
2018-07-02T06:53:07.703Z,18.40
2018-07-02T06:55:34.724Z,19.20
2018-07-02T07:00:28.808Z,17.20
2018-07-02T07:02:55.889Z,17.00
2018-07-02T07:05:22.846Z,15.90
2018-07-02T07:07:49.868Z,16.60
2018-07-02T07:10:16.888Z,15.10
2018-07-02T07:12:44.852Z,13.70
2018-07-02T07:15:11.843Z,14.60
2018-07-02T07:17:38.860Z,14.30
2018-07-02T07:20:05.873Z,14.10
2018-07-02T07:22:32.878Z,13.40
2018-07-02T07:24:59.917Z,13.20
2018-07-02T07:27:26.928Z,14.70
2018-07-02T07:29:53.915Z,12.80
2018-07-02T07:32:21.792Z,13.60
2018-07-02T07:34:48.781Z,12.00
2018-07-02T07:39:42.899Z,11.30
2018-07-02T07:42:09.880Z,12.30
2018-07-02T07:44:37.690Z,11.20
2018-07-02T07:49:31.791Z,11.80
2018-07-02T07:54:39.301Z,12.10
2018-07-02T07:57:06.302Z,11.30
2018-07-02T07:59:34.252Z,11.20
2018-07-02T08:02:01.219Z,9.80
2018-07-02T08:04:28.208Z,10.20
2018-07-02T08:06:55.209Z,10.60
2018-07-02T08:09:22.230Z,10.00
2018-07-02T08:11:49.212Z,9.90
2018-07-02T08:14:16.208Z,9.80
2018-07-02T08:16:43.247Z,10.70
2018-07-02T08:19:10.265Z,10.80
2018-07-02T08:21:37.225Z,10.20
2018-07-02T08:24:04.247Z,9.90
2018-07-02T08:26:31.235Z,10.00
2018-07-02T08:28:58.242Z,9.50
2018-07-02T08:31:26.067Z,10.40
2018-07-02T08:33:53.052Z,10.40
2018-07-02T08:36:20.040Z,8.30
2018-07-02T08:38:47.080Z,8.30
2018-07-02T08:41:14.082Z,8.50
2018-07-02T08:46:09.137Z,10.40
2018-07-02T08:48:36.152Z,11.50
2018-07-02T08:53:30.262Z,10.70
2018-07-02T08:55:57.251Z,9.40
2018-07-02T08:58:24.958Z,9.40
2018-07-02T09:00:51.975Z,9.80
2018-07-02T09:03:18.960Z,9.90
2018-07-02T09:05:46.269Z,10.30
2018-07-02T09:08:13.302Z,9.40
2018-07-02T09:10:40.300Z,8.80
2018-07-02T09:13:07.291Z,8.80
2018-07-02T09:15:35.069Z,7.10
2018-07-02T09:20:41.347Z,9.40
2018-07-02T09:23:08.332Z,9.40
2018-07-02T09:25:36.145Z,9.70
2018-07-02T09:28:03.159Z,10.70
2018-07-02T09:30:30.159Z,10.80
2018-07-02T09:32:57.150Z,10.00
2018-07-02T09:35:25.019Z,10.10
2018-07-02T09:37:52.007Z,9.60
2018-07-02T09:40:19.007Z,8.80
2018-07-02T09:42:46.020Z,9.80
2018-07-02T09:45:13.039Z,8.30
2018-07-02T09:47:39.992Z,8.80
2018-07-02T09:50:07.016Z,8.90
2018-07-02T09:52:34.015Z,9.80
2018-07-02T09:55:01.015Z,10.80
2018-07-02T09:57:28.035Z,10.30
2018-07-02T09:59:55.106Z,11.90
2018-07-02T10:02:22.022Z,10.30
2018-07-02T10:04:49.060Z,10.70
2018-07-02T10:07:16.048Z,10.00
2018-07-02T10:09:43.038Z,9.30
2018-07-02T10:12:10.057Z,9.70
2018-07-02T10:14:37.071Z,9.10
2018-07-02T10:17:04.046Z,9.70
2018-07-02T10:19:31.089Z,11.00
2018-07-02T10:21:58.794Z,9.90
2018-07-02T10:24:25.777Z,9.50
2018-07-02T10:26:52.807Z,10.80
2018-07-02T10:29:19.817Z,8.70
2018-07-02T10:31:46.775Z,9.50
2018-07-02T10:34:13.806Z,9.70
2018-07-02T10:36:40.793Z,10.00
2018-07-02T10:41:48.313Z,10.20
2018-07-02T10:46:42.372Z,10.00
2018-07-02T10:49:09.378Z,10.70
2018-07-02T10:51:36.365Z,11.80
2018-07-02T10:54:03.364Z,11.40
2018-07-02T10:56:30.401Z,12.70
2018-07-02T10:58:57.409Z,11.20
2018-07-02T11:01:25.397Z,11.60
2018-07-02T11:03:52.377Z,11.20
2018-07-02T11:06:19.368Z,12.90
2018-07-02T11:08:46.376Z,12.10
2018-07-02T11:11:13.428Z,12.50
2018-07-02T11:13:40.389Z,11.80
2018-07-02T11:16:07.400Z,11.50
2018-07-02T11:18:34.429Z,11.20
2018-07-02T11:21:02.305Z,12.30
2018-07-02T11:23:29.297Z,11.10
2018-07-02T11:25:56.324Z,11.70
2018-07-02T11:28:24.079Z,11.50
2018-07-02T11:30:51.064Z,9.90
2018-07-02T11:33:18.076Z,9.90
2018-07-02T11:35:45.075Z,10.20
2018-07-02T11:38:12.054Z,11.00
2018-07-02T11:40:39.077Z,10.30
2018-07-02T11:43:06.791Z,9.80
2018-07-02T11:45:33.792Z,10.10
2018-07-02T11:48:00.804Z,10.10
2018-07-02T11:50:28.771Z,9.60
2018-07-02T11:52:55.744Z,9.20
2018-07-02T11:55:22.794Z,9.30
2018-07-02T12:00:28.275Z,9.80
2018-07-02T12:02:55.262Z,9.80
2018-07-02T12:05:22.263Z,9.30
2018-07-02T12:07:49.305Z,9.50
2018-07-02T12:10:16.300Z,8.50
2018-07-02T12:12:43.285Z,9.40
2018-07-02T12:15:10.312Z,8.80
2018-07-02T12:17:38.266Z,8.80
2018-07-02T12:20:05.253Z,9.00
2018-07-02T12:22:33.235Z,9.20
2018-07-02T12:25:00.239Z,9.10
2018-07-02T12:27:28.070Z,8.70
2018-07-02T12:29:55.089Z,8.70
2018-07-02T12:32:22.086Z,7.90
2018-07-02T12:34:49.084Z,8.30
2018-07-02T12:37:16.124Z,8.00
2018-07-02T12:39:43.114Z,8.90
2018-07-02T12:44:37.249Z,8.70
2018-07-02T12:47:04.256Z,8.50
2018-07-02T12:51:58.384Z,8.30
2018-07-02T12:54:25.475Z,8.20
2018-07-02T12:59:19.496Z,8.70
2018-07-02T13:01:47.319Z,9.30
2018-07-02T13:04:14.325Z,8.20
2018-07-02T13:06:45.645Z,8.50
2018-07-02T13:09:13.473Z,8.30
2018-07-02T13:11:40.456Z,8.60
2018-07-02T13:14:07.544Z,8.80
2018-07-02T13:21:40.047Z,8.10
2018-07-02T13:24:07.037Z,7.70
2018-07-02T13:26:34.999Z,8.20
2018-07-02T13:29:02.119Z,8.20
2018-07-02T13:31:29.025Z,7.80
2018-07-02T13:33:56.023Z,8.70
2018-07-02T13:36:23.088Z,8.00
2018-07-02T13:38:50.052Z,8.20
2018-07-02T13:41:17.053Z,8.00
2018-07-02T13:43:44.081Z,9.20
2018-07-02T13:46:11.095Z,8.60
2018-07-02T13:48:38.104Z,8.40
2018-07-02T13:51:06.045Z,8.70
2018-07-02T13:53:33.029Z,8.70
2018-07-02T13:55:59.998Z,8.60
2018-07-02T13:58:27.061Z,9.10
2018-07-02T14:00:54.053Z,8.80
2018-07-02T14:05:48.160Z,9.30
2018-07-02T14:08:15.161Z,9.00
2018-07-02T14:10:42.171Z,8.10
2018-07-02T14:13:09.214Z,8.70
2018-07-02T14:15:36.203Z,8.80
2018-07-02T14:18:04.150Z,8.70
2018-07-02T14:20:31.343Z,8.80
2018-07-02T14:22:58.159Z,8.40
2018-07-02T14:25:25.152Z,9.40
2018-07-02T14:27:52.180Z,8.90
2018-07-02T14:30:19.885Z,8.30
2018-07-02T14:32:46.883Z,9.20
2018-07-02T14:35:13.918Z,8.80
2018-07-02T14:40:19.422Z,9.00
2018-07-02T14:42:46.415Z,9.60
2018-07-02T14:45:13.590Z,9.50
2018-07-02T14:47:40.469Z,9.50
2018-07-02T14:50:08.308Z,9.50
2018-07-02T14:52:35.329Z,9.10
2018-07-02T14:55:02.389Z,8.90
2018-07-02T14:57:29.375Z,9.30
2018-07-02T14:59:56.372Z,9.60
2018-07-02T15:02:23.392Z,9.70
2018-07-02T15:04:50.390Z,10.00
2018-07-02T15:07:18.139Z,10.30
2018-07-02T15:09:45.179Z,9.70
2018-07-02T15:12:12.212Z,9.70
2018-07-02T15:14:42.017Z,9.70
2018-07-02T15:17:07.235Z,9.50
2018-07-02T15:19:34.220Z,9.40
2018-07-02T15:22:01.205Z,9.70
2018-07-02T15:24:28.251Z,9.20
2018-07-02T15:26:56.080Z,8.70
2018-07-02T15:29:23.065Z,9.10
2018-07-02T15:31:50.116Z,9.80
2018-07-02T15:34:17.101Z,9.30
2018-07-02T15:36:44.103Z,10.50
2018-07-02T15:39:11.122Z,9.30
2018-07-02T15:41:38.623Z,8.80
2018-07-02T15:44:05.584Z,9.90
2018-07-02T15:46:33.557Z,10.10
2018-07-02T15:49:00.562Z,9.80
2018-07-02T15:53:55.510Z,9.50
2018-07-02T15:56:22.493Z,9.50
2018-07-02T16:01:27.997Z,9.90
2018-07-02T16:03:55.123Z,9.80
2018-07-02T16:06:21.984Z,10.40
2018-07-02T16:08:49.022Z,10.60
2018-07-02T16:11:16.012Z,10.50
2018-07-02T16:13:43.001Z,10.70
2018-07-02T16:16:10.044Z,10.50
2018-07-02T16:18:37.034Z,10.80
2018-07-02T16:21:04.236Z,10.20
2018-07-02T16:23:31.043Z,10.40
2018-07-02T16:25:58.025Z,10.60
2018-07-02T16:31:04.906Z,10.40
2018-07-02T16:33:31.897Z,10.70
2018-07-02T16:35:58.896Z,10.80
2018-07-02T16:38:26.881Z,10.80
2018-07-02T16:43:20.960Z,10.70
2018-07-02T16:45:47.983Z,11.10
2018-07-02T16:48:14.977Z,11.30
2018-07-02T16:50:41.972Z,11.60
2018-07-02T16:53:09.011Z,11.90
2018-07-02T16:55:36.824Z,12.00
2018-07-02T16:58:03.814Z,12.00
2018-07-02T17:00:30.840Z,11.80
2018-07-02T17:02:57.841Z,12.10
2018-07-02T17:05:24.829Z,12.20
2018-07-02T17:07:51.848Z,12.30
2018-07-02T17:10:18.831Z,12.10
2018-07-02T17:12:45.827Z,12.10
2018-07-02T17:15:12.875Z,12.80
2018-07-02T17:20:06.929Z,13.00
2018-07-02T17:22:33.975Z,12.60
2018-07-02T17:25:00.956Z,13.00
2018-07-02T17:27:27.947Z,13.00
2018-07-02T17:29:54.965Z,13.30
2018-07-02T17:32:21.960Z,13.40
2018-07-02T17:34:48.964Z,13.40
2018-07-02T17:39:54.777Z,13.40
2018-07-02T17:42:21.815Z,13.60
2018-07-02T17:44:48.811Z,13.40
2018-07-02T17:47:16.536Z,13.70
2018-07-02T17:49:43.583Z,13.90
2018-07-02T17:52:10.592Z,14.30
2018-07-02T17:54:37.615Z,14.20
2018-07-02T17:57:05.652Z,14.50
2018-07-02T17:59:32.663Z,14.50
2018-07-02T18:01:59.669Z,14.50
2018-07-02T18:04:28.370Z,14.20
2018-07-02T18:06:55.357Z,14.20
2018-07-02T18:09:23.235Z,14.10
2018-07-02T18:11:49.414Z,14.20
2018-07-02T18:14:16.441Z,14.20
2018-07-02T18:16:43.488Z,14.30
2018-07-02T18:19:10.508Z,14.60
2018-07-02T18:21:37.502Z,14.60
2018-07-02T18:24:04.505Z,14.60
2018-07-02T18:26:31.530Z,14.60
2018-07-02T18:28:58.512Z,14.60
2018-07-02T18:31:25.515Z,14.60
2018-07-02T18:33:52.706Z,14.60
2018-07-02T18:38:46.802Z,14.90
2018-07-02T18:41:16.844Z,15.00
2018-07-02T18:43:47.364Z,14.70
2018-07-02T18:46:14.381Z,14.80
2018-07-02T18:48:41.422Z,14.90
2018-07-02T18:53:46.910Z,14.50
2018-07-02T18:56:13.911Z,14.60
2018-07-02T19:01:08.411Z,14.30
2018-07-02T19:03:35.401Z,15.10
2018-07-02T19:06:02.409Z,15.10
2018-07-02T19:08:29.518Z,15.50
2018-07-02T19:10:56.552Z,15.10
2018-07-02T19:13:23.570Z,15.50
2018-07-02T19:15:50.652Z,15.40
2018-07-02T19:18:17.827Z,14.90
2018-07-02T19:20:44.785Z,15.10
2018-07-02T19:23:11.816Z,15.40
2018-07-02T19:25:38.878Z,15.50
2018-07-02T19:28:07.415Z,15.40
2018-07-02T19:30:34.464Z,15.10
2018-07-02T19:33:01.661Z,15.60
2018-07-02T19:35:28.811Z,15.90
2018-07-02T19:37:55.869Z,15.90
2018-07-02T19:40:23.364Z,15.90
2018-07-02T19:42:50.630Z,16.10
2018-07-02T19:45:17.714Z,15.60
2018-07-02T19:47:44.698Z,15.40
2018-07-02T19:50:11.693Z,15.60
2018-07-02T19:52:39.003Z,16.10
2018-07-02T19:55:06.105Z,16.00
2018-07-02T19:57:33.039Z,15.90
2018-07-02T20:00:01.079Z,15.40
2018-07-02T20:02:28.093Z,14.90
2018-07-02T20:04:55.063Z,15.00
2018-07-02T20:07:22.158Z,15.50
2018-07-02T20:09:49.123Z,16.00
2018-07-02T20:14:54.645Z,15.80
2018-07-02T20:19:48.719Z,15.60
2018-07-02T20:22:15.754Z,15.90
2018-07-02T20:24:43.581Z,16.90
2018-07-02T20:27:10.610Z,17.30
2018-07-02T20:29:37.622Z,16.90
2018-07-02T20:32:04.611Z,16.70
2018-07-02T20:34:31.605Z,16.20
2018-07-02T20:36:58.637Z,15.90
2018-07-02T20:39:25.632Z,15.60
2018-07-02T20:41:52.628Z,15.90
2018-07-02T20:44:19.647Z,15.90
2018-07-02T20:46:46.666Z,16.20
2018-07-02T20:49:13.681Z,15.80
2018-07-02T20:51:40.718Z,15.90
2018-07-02T20:54:07.707Z,16.40
2018-07-02T20:56:34.699Z,16.50
2018-07-02T20:59:01.739Z,16.10
2018-07-02T21:01:28.736Z,16.20
2018-07-02T21:03:55.735Z,16.10
2018-07-02T21:06:22.774Z,16.40
2018-07-02T21:08:49.771Z,15.90
2018-07-02T21:11:16.779Z,15.90
2018-07-02T21:13:43.839Z,15.70
2018-07-02T21:16:10.894Z,15.90
2018-07-02T21:18:37.879Z,16.30
2018-07-02T21:21:04.924Z,16.40
2018-07-02T21:23:31.956Z,16.40
2018-07-02T21:25:58.971Z,16.80
2018-07-02T21:28:26.016Z,16.30
2018-07-02T21:33:31.534Z,16.50
2018-07-02T21:35:58.534Z,16.60
2018-07-02T21:40:52.672Z,16.10
2018-07-02T21:43:19.690Z,16.30
2018-07-02T21:45:46.696Z,16.20
2018-07-02T21:48:13.725Z,16.50
2018-07-02T21:50:40.716Z,16.50
2018-07-02T21:53:08.174Z,17.40
2018-07-02T21:55:35.210Z,17.30
2018-07-02T21:58:02.194Z,17.00
2018-07-02T22:03:07.373Z,17.00
2018-07-02T22:05:34.367Z,17.60
2018-07-02T22:08:01.374Z,17.90
2018-07-02T22:10:28.404Z,17.50
2018-07-02T22:12:55.424Z,18.30
2018-07-02T22:15:22.409Z,18.60
2018-07-02T22:17:49.435Z,18.90
2018-07-02T22:20:16.423Z,18.50
2018-07-02T22:25:10.569Z,18.10
2018-07-02T22:27:37.567Z,17.70
2018-07-02T22:30:04.574Z,17.70
2018-07-02T22:32:33.766Z,17.10
2018-07-02T22:35:00.783Z,17.00
2018-07-02T22:37:27.792Z,17.20
2018-07-02T22:39:54.864Z,17.50
2018-07-02T22:42:21.875Z,17.80
2018-07-02T22:44:48.873Z,18.60
2018-07-02T22:47:15.900Z,18.60
2018-07-02T22:49:42.903Z,18.10
2018-07-02T22:52:09.895Z,18.00
2018-07-02T22:54:36.920Z,17.90
2018-07-02T22:57:03.911Z,18.40
2018-07-02T22:59:30.899Z,17.80
2018-07-02T23:01:57.932Z,17.70
2018-07-02T23:04:24.931Z,18.00
2018-07-02T23:06:51.928Z,18.20
2018-07-02T23:14:27.122Z,19.10
2018-07-02T23:16:53.841Z,18.80
2018-07-02T23:19:20.829Z,18.90
2018-07-02T23:21:47.834Z,18.80
2018-07-02T23:24:14.879Z,19.30
2018-07-02T23:26:41.891Z,19.50
2018-07-02T23:29:08.888Z,18.90
2018-07-02T23:31:35.919Z,18.70
2018-07-02T23:34:02.932Z,18.40
2018-07-02T23:36:29.920Z,18.40
2018-07-02T23:38:56.936Z,19.00
2018-07-02T23:44:04.240Z,18.00
2018-07-02T23:46:35.416Z,18.00
2018-07-02T23:49:03.351Z,18.10
2018-07-02T23:51:30.340Z,18.20
2018-07-02T23:54:03.955Z,18.00
2018-07-02T23:56:31.743Z,18.10
2018-07-02T23:58:58.666Z,18.10
